Hauptseite
METAR-TAF:

METAR-TAF

Flughäfen :

Sun City, Südafrika

Breite: 25-20-01S, Länge: 027-10-24E, Höhe: 1040 m

Beobachtung

Neuester Wetterbericht von vor 47 Minuten, um 14:00 UTC
Wind 3 kt aus West/Nordwest
Temperatur 33°C
Luftfeuchtigkeit 21%
Luftdruck 1018 hPa

METAR: FAPN 231400Z AUTO 29003KT //// // ////// 33/08 Q1018

Zeit: 16:47 (14:47 UTC)


TAF: fehlend

Wetterbeobachtungen und Prognosen von mehr als 4000 Flughäfen (METAR und TAF Bericht).

Die verfügbaren Stationen werden durch gelbe und rote Markierungen auf der Karte dargestellt.

Führen Sie die Maus auf sie, um den Namen der Station zu sehen.

Darauf klicken, um die Beobachtung von Wetterbeobachtungen und Prognosen zu sehen.

Um die Karte zu ändern : klicken Sie auf den grünen Tasten mit einem schwarzen Kreuz Zum Vergrößern, auf den grünen Button mit einem Gedankenstrich zu verkleinern, oder auf die grünen Pfeile für benachbarte Karten.


METAR-TAF: